Time;durP1;ratioP1;P1;durP2;ratioP2;P2;SDS_P1;SDS_P2;PMS_P1;PMS_P2;Temp;Humidity;BMP_temperature;BMP_pressure;BME280_temperature;BME280_humidity;BME280_pressure;Samples;Min_cycle;Max_cycle;Signal;HPM_P1;HPM_P2
2022/06/29 00:01:52;0.00;0.00;0.62;0.00;0.00;0.62;3.30;2.40;;;29.10;26.80;;;;;;2252288;61;20451;-65
2022/06/29 00:04:37;0.00;0.00;0.62;0.00;0.00;0.62;2.43;1.90;;;29.10;26.80;;;;;;2250424;61;20778;-62
2022/06/29 00:07:23;0.00;0.00;0.62;0.00;0.00;0.62;2.57;1.80;;;29.10;26.80;;;;;;2281541;61;20930;-63
2022/06/29 00:10:10;0.00;0.00;0.62;0.00;0.00;0.62;2.07;1.87;;;29.10;26.80;;;;;;2251498;61;20774;-64
2022/06/29 00:12:56;0.00;0.00;0.62;0.00;0.00;0.62;2.10;1.90;;;29.10;26.80;;;;;;2248314;61;20362;-64
2022/06/29 00:15:41;0.00;0.00;0.62;0.00;0.00;0.62;2.30;1.90;;;29.10;26.80;;;;;;2251247;61;20887;-64
2022/06/29 00:18:25;0.00;0.00;0.62;0.00;0.00;0.62;1.90;1.70;;;29.10;26.80;;;;;;2251471;61;20378;-63
2022/06/29 00:21:10;0.00;0.00;0.62;0.00;0.00;0.62;3.27;2.00;;;29.10;26.80;;;;;;2251422;61;20378;-64
2022/06/29 00:23:55;0.00;0.00;0.62;0.00;0.00;0.62;3.70;2.07;;;29.10;26.80;;;;;;2251176;61;20781;-65
2022/06/29 00:26:40;0.00;0.00;0.62;0.00;0.00;0.62;1.90;1.37;;;29.10;26.70;;;;;;2248952;61;21167;-62
2022/06/29 00:29:27;0.00;0.00;0.62;0.00;0.00;0.62;3.60;1.60;;;29.10;26.70;;;;;;2270398;61;20394;-64
2022/06/29 00:32:12;0.00;0.00;0.62;0.00;0.00;0.62;2.30;2.00;;;29.00;26.70;;;;;;2250830;61;20421;-63
2022/06/29 00:34:59;0.00;0.00;0.62;0.00;0.00;0.62;2.50;1.70;;;29.00;26.60;;;;;;2251129;61;21019;-66
2022/06/29 00:37:44;0.00;0.00;0.62;0.00;0.00;0.62;2.53;1.80;;;29.10;26.60;;;;;;2247833;61;20903;-62
2022/06/29 00:40:30;0.00;0.00;0.62;0.00;0.00;0.62;2.43;1.37;;;29.10;26.60;;;;;;2247928;61;20531;-64
2022/06/29 00:43:14;0.00;0.00;0.62;0.00;0.00;0.62;3.50;1.90;;;29.10;26.70;;;;;;2250955;61;20934;-63
2022/06/29 00:46:01;0.00;0.00;0.62;0.00;0.00;0.62;1.80;1.60;;;29.00;26.70;;;;;;2251749;61;20433;-66
2022/06/29 00:48:46;0.00;0.00;0.62;0.00;0.00;0.62;3.03;2.00;;;29.00;26.60;;;;;;2251640;61;20434;-66
2022/06/29 00:51:34;0.00;0.00;0.62;0.00;0.00;0.62;2.03;1.57;;;29.00;26.60;;;;;;2251338;61;20898;-66
2022/06/29 00:54:25;0.00;0.00;0.62;0.00;0.00;0.62;2.70;1.67;;;29.00;26.60;;;;;;2251245;61;20449;-66
2022/06/29 00:57:15;0.00;0.00;0.62;0.00;0.00;0.62;2.63;1.87;;;29.00;26.60;;;;;;2251582;61;20358;-62
2022/06/29 01:00:00;0.00;0.00;0.62;0.00;0.00;0.62;2.47;1.87;;;29.00;26.60;;;;;;2251511;61;20386;-62
2022/06/29 01:02:47;0.00;0.00;0.62;0.00;0.00;0.62;1.87;1.47;;;29.00;26.60;;;;;;2251471;61;20441;-63
2022/06/29 01:05:32;0.00;0.00;0.62;0.00;0.00;0.62;2.10;1.70;;;29.00;26.60;;;;;;2251309;61;20378;-66
2022/06/29 01:08:17;0.00;0.00;0.62;0.00;0.00;0.62;2.43;1.93;;;29.00;26.70;;;;;;2251226;61;20832;-65
2022/06/29 01:11:03;0.00;0.00;0.62;0.00;0.00;0.62;2.47;2.03;;;28.90;26.50;;;;;;2251086;61;20992;-64
2022/06/29 01:13:48;0.00;0.00;0.62;0.00;0.00;0.62;2.00;1.60;;;28.90;26.60;;;;;;2251200;61;20386;-66
2022/06/29 01:16:33;0.00;0.00;0.62;0.00;0.00;0.62;1.77;1.50;;;28.90;26.60;;;;;;2251945;61;20382;-66
2022/06/29 01:19:20;0.00;0.00;0.62;0.00;0.00;0.62;2.40;1.73;;;28.90;26.60;;;;;;2252451;61;20419;-66
2022/06/29 01:22:09;0.00;0.00;0.62;0.00;0.00;0.62;2.77;2.20;;;28.90;26.40;;;;;;2248807;61;20362;-59
2022/06/29 01:24:54;0.00;0.00;0.62;0.00;0.00;0.62;2.43;2.20;;;28.90;26.10;;;;;;2251702;61;20370;-61
2022/06/29 01:27:39;0.00;0.00;0.62;0.00;0.00;0.62;4.30;2.47;;;28.90;25.90;;;;;;2251864;61;20772;-60
2022/06/29 01:30:25;0.00;0.00;0.62;0.00;0.00;0.62;2.37;1.67;;;28.80;26.00;;;;;;2251866;61;20363;-61
2022/06/29 01:33:10;0.00;0.00;0.62;0.00;0.00;0.62;2.60;2.10;;;28.80;26.10;;;;;;2251720;61;20366;-59
2022/06/29 01:35:54;0.00;0.00;0.62;0.00;0.00;0.62;2.97;2.30;;;28.80;26.00;;;;;;2248740;61;20916;-58
2022/06/29 01:38:42;0.00;0.00;0.62;0.00;0.00;0.62;3.10;2.10;;;28.80;26.10;;;;;;2251805;61;20810;-61
2022/06/29 01:41:26;0.00;0.00;0.62;0.00;0.00;0.62;3.20;2.20;;;28.70;26.00;;;;;;2249118;61;20895;-58
2022/06/29 01:44:12;0.00;0.00;0.62;0.00;0.00;0.62;2.03;1.73;;;28.70;26.10;;;;;;2251520;61;20394;-57
2022/06/29 01:46:57;0.00;0.00;0.62;0.00;0.00;0.62;3.30;2.60;;;28.70;26.30;;;;;;2248757;61;20393;-58
2022/06/29 01:49:41;0.00;0.00;0.62;0.00;0.00;0.62;2.53;1.93;;;28.70;26.30;;;;;;2251798;61;20383;-60
2022/06/29 01:52:26;0.00;0.00;0.62;0.00;0.00;0.62;3.27;1.87;;;28.70;26.40;;;;;;2251734;61;20358;-58
2022/06/29 01:55:13;0.00;0.00;0.62;0.00;0.00;0.62;2.13;1.80;;;28.70;26.40;;;;;;2251762;61;20757;-59
2022/06/29 01:57:57;0.00;0.00;0.62;0.00;0.00;0.62;5.93;2.10;;;28.70;26.40;;;;;;2251765;61;20355;-59
2022/06/29 02:00:43;0.00;0.00;0.62;0.00;0.00;0.62;3.50;2.47;;;28.70;26.40;;;;;;2251686;61;20769;-59
2022/06/29 02:03:32;0.00;0.00;0.62;0.00;0.00;0.62;1.90;1.70;;;28.70;26.40;;;;;;2252091;61;20362;-57
2022/06/29 02:06:17;0.00;0.00;0.62;0.00;0.00;0.62;2.40;2.03;;;28.70;26.50;;;;;;2248562;61;20901;-58
2022/06/29 02:09:02;0.00;0.00;0.62;0.00;0.00;0.62;2.57;1.80;;;28.60;26.40;;;;;;2251790;61;20430;-60
2022/06/29 02:11:49;0.00;0.00;0.62;0.00;0.00;0.62;3.17;2.00;;;28.70;26.50;;;;;;2251936;61;20363;-57
2022/06/29 02:14:33;0.00;0.00;0.62;0.00;0.00;0.62;2.60;1.97;;;28.60;26.50;;;;;;2251470;61;20925;-57
2022/06/29 02:17:19;0.00;0.00;0.62;0.00;0.00;0.62;2.90;2.07;;;28.60;26.50;;;;;;2251793;61;20354;-58
2022/06/29 02:20:06;0.00;0.00;0.62;0.00;0.00;0.62;3.93;2.10;;;28.60;26.50;;;;;;2251860;61;20386;-58
2022/06/29 02:22:51;0.00;0.00;0.62;0.00;0.00;0.62;2.50;2.17;;;28.60;26.50;;;;;;2251688;61;20375;-59
2022/06/29 02:25:36;0.00;0.00;0.62;0.00;0.00;0.62;2.60;2.00;;;28.60;26.50;;;;;;2252087;61;20363;-58
2022/06/29 02:28:22;0.00;0.00;0.62;0.00;0.00;0.62;2.40;1.80;;;28.60;26.50;;;;;;2248093;61;20415;-59
2022/06/29 02:37:16;0.00;0.00;0.62;0.00;0.00;0.62;3.10;1.73;;;28.60;26.50;;;;;;2248651;61;20340;-60
2022/06/29 02:40:00;0.00;0.00;0.62;0.00;0.00;0.62;2.87;2.20;;;28.50;26.50;;;;;;2251925;61;20479;-58
2022/06/29 02:42:45;0.00;0.00;0.62;0.00;0.00;0.62;2.40;2.10;;;28.50;26.50;;;;;;2251567;61;20371;-61
2022/06/29 02:45:31;0.00;0.00;0.62;0.00;0.00;0.62;2.20;1.73;;;28.60;26.60;;;;;;2251752;61;21247;-58
2022/06/29 02:48:16;0.00;0.00;0.62;0.00;0.00;0.62;2.90;2.17;;;28.50;26.60;;;;;;2251780;61;20394;-60
2022/06/29 02:51:01;0.00;0.00;0.62;0.00;0.00;0.62;2.53;2.00;;;28.50;26.60;;;;;;2251727;61;20859;-61
2022/06/29 02:53:45;0.00;0.00;0.62;0.00;0.00;0.62;2.57;2.17;;;28.50;26.60;;;;;;2251692;61;20367;-58
2022/06/29 02:56:31;0.00;0.00;0.62;0.00;0.00;0.62;3.83;2.73;;;28.50;26.60;;;;;;2251701;61;20367;-61
2022/06/29 02:59:16;0.00;0.00;0.62;0.00;0.00;0.62;2.27;1.90;;;28.50;26.70;;;;;;2251692;61;20382;-58
2022/06/29 03:02:02;0.00;0.00;0.62;0.00;0.00;0.62;3.10;1.83;;;28.50;26.70;;;;;;2251635;61;20412;-57
2022/06/29 03:04:47;0.00;0.00;0.62;0.00;0.00;0.62;2.67;1.80;;;28.50;26.70;;;;;;2251341;61;20382;-60
2022/06/29 03:07:32;0.00;0.00;0.62;0.00;0.00;0.62;3.63;2.03;;;28.50;26.70;;;;;;2248416;61;20798;-58
2022/06/29 03:10:17;0.00;0.00;0.62;0.00;0.00;0.62;3.10;2.00;;;28.50;26.70;;;;;;2251974;61;20383;-56
2022/06/29 03:13:03;0.00;0.00;0.62;0.00;0.00;0.62;2.70;2.10;;;28.50;26.70;;;;;;2251657;61;20808;-62
2022/06/29 03:15:48;0.00;0.00;0.62;0.00;0.00;0.62;2.30;1.73;;;28.50;26.70;;;;;;2251695;61;20371;-60
2022/06/29 03:18:34;0.00;0.00;0.62;0.00;0.00;0.62;2.17;1.97;;;28.50;26.70;;;;;;2251360;61;20441;-60
2022/06/29 03:21:19;0.00;0.00;0.62;0.00;0.00;0.62;2.00;1.67;;;28.50;26.70;;;;;;2251610;61;20498;-60
2022/06/29 03:24:04;0.00;0.00;0.62;0.00;0.00;0.62;2.77;1.90;;;28.50;26.80;;;;;;2251367;61;20443;-57
2022/06/29 03:26:49;0.00;0.00;0.62;0.00;0.00;0.62;2.50;2.30;;;28.50;26.70;;;;;;2251568;61;20390;-60
2022/06/29 03:29:34;0.00;0.00;0.62;0.00;0.00;0.62;2.73;2.07;;;28.40;26.70;;;;;;2251585;61;20379;-61
2022/06/29 03:32:19;0.00;0.00;0.62;0.00;0.00;0.62;2.70;1.97;;;28.50;26.70;;;;;;2251957;61;20879;-58
2022/06/29 03:35:07;0.00;0.00;0.62;0.00;0.00;0.62;2.13;1.67;;;28.40;26.70;;;;;;2251149;61;21011;-57
2022/06/29 03:37:52;0.00;0.00;0.62;0.00;0.00;0.62;2.70;2.30;;;28.40;26.70;;;;;;2251338;61;20777;-59
2022/06/29 03:40:36;0.00;0.00;0.62;0.00;0.00;0.62;2.67;2.20;;;28.40;26.70;;;;;;2248274;61;20812;-57
2022/06/29 03:43:22;0.00;0.00;0.62;0.00;0.00;0.62;2.03;1.83;;;28.40;26.70;;;;;;2251348;61;20362;-57
2022/06/29 03:46:06;0.00;0.00;0.62;0.00;0.00;0.62;2.90;2.20;;;28.40;26.70;;;;;;2251432;61;20359;-60
2022/06/29 03:48:51;0.00;0.00;0.62;0.00;0.00;0.62;2.50;2.30;;;28.40;26.70;;;;;;2251364;61;20425;-58
2022/06/29 03:51:37;0.00;0.00;0.62;0.00;0.00;0.62;2.67;2.03;;;28.40;27.20;;;;;;2251374;61;20425;-56
2022/06/29 03:54:22;0.00;0.00;0.62;0.00;0.00;0.62;2.33;2.13;;;28.40;26.70;;;;;;2251537;61;20379;-59
2022/06/29 03:57:07;0.00;0.00;0.62;0.00;0.00;0.62;3.80;2.17;;;28.40;26.70;;;;;;2251034;61;20473;-60
2022/06/29 03:59:52;0.00;0.00;0.62;0.00;0.00;0.62;2.90;1.87;;;28.40;26.70;;;;;;2251473;61;20472;-58
2022/06/29 04:02:38;0.00;0.00;0.62;0.00;0.00;0.62;3.47;2.27;;;28.40;26.60;;;;;;2248430;61;20363;-58
2022/06/29 04:05:23;0.00;0.00;0.62;0.00;0.00;0.62;2.33;2.13;;;28.40;26.60;;;;;;2251386;61;20437;-56
2022/06/29 04:08:10;0.00;0.00;0.62;0.00;0.00;0.62;2.50;2.30;;;28.40;26.50;;;;;;2251260;61;20483;-57
2022/06/29 04:10:55;0.00;0.00;0.62;0.00;0.00;0.62;2.73;2.50;;;28.40;26.40;;;;;;2251456;61;20366;-55
2022/06/29 04:13:40;0.00;0.00;0.62;0.00;0.00;0.62;3.27;2.60;;;28.40;26.40;;;;;;2251329;61;20391;-60
2022/06/29 04:16:24;0.00;0.00;0.62;0.00;0.00;0.62;3.37;2.60;;;28.30;26.40;;;;;;2251530;61;20394;-60
2022/06/29 04:19:09;0.00;0.00;0.62;0.00;0.00;0.62;3.30;2.00;;;28.30;26.30;;;;;;2251028;61;20884;-59
2022/06/29 04:21:55;0.00;0.00;0.62;0.00;0.00;0.62;3.43;2.50;;;28.30;26.40;;;;;;2251410;61;20467;-58
2022/06/29 04:24:41;0.00;0.00;0.62;0.00;0.00;0.62;3.23;2.17;;;28.30;26.40;;;;;;2247892;61;20381;-60
2022/06/29 04:27:26;0.00;0.00;0.62;0.00;0.00;0.62;2.50;2.30;;;28.30;26.40;;;;;;2251552;61;20426;-59
2022/06/29 04:30:12;0.00;0.00;0.62;0.00;0.00;0.62;3.17;2.30;;;28.30;26.40;;;;;;2251461;61;20825;-60
2022/06/29 04:32:57;0.00;0.00;0.62;0.00;0.00;0.62;4.63;2.30;;;28.30;26.40;;;;;;2251657;61;20788;-60
2022/06/29 04:35:42;0.00;0.00;0.62;0.00;0.00;0.62;2.97;2.40;;;28.20;26.30;;;;;;2251537;61;20922;-58
2022/06/29 04:38:26;0.00;0.00;0.62;0.00;0.00;0.62;2.13;1.60;;;28.20;26.30;;;;;;2251466;61;20375;-59
2022/06/29 04:41:13;0.00;0.00;0.62;0.00;0.00;0.62;2.90;2.20;;;28.20;26.40;;;;;;2251086;61;20409;-59
2022/06/29 04:43:58;0.00;0.00;0.62;0.00;0.00;0.62;2.73;2.20;;;28.20;26.40;;;;;;2251051;61;20498;-58
2022/06/29 04:46:42;0.00;0.00;0.62;0.00;0.00;0.62;2.53;2.23;;;28.20;26.30;;;;;;2251176;61;20363;-60
2022/06/29 04:49:27;0.00;0.00;0.62;0.00;0.00;0.62;3.03;2.50;;;28.20;26.30;;;;;;2251848;61;20386;-60
2022/06/29 04:52:13;0.00;0.00;0.62;0.00;0.00;0.62;3.17;2.40;;;28.20;26.30;;;;;;2252130;61;20895;-60
2022/06/29 04:54:57;0.00;0.00;0.62;0.00;0.00;0.62;2.33;2.13;;;28.10;26.30;;;;;;2248738;61;20445;-58
2022/06/29 04:57:44;0.00;0.00;0.62;0.00;0.00;0.62;2.30;2.10;;;28.10;26.30;;;;;;2251792;61;20359;-57
2022/06/29 05:00:29;0.00;0.00;0.62;0.00;0.00;0.62;2.60;2.40;;;28.10;26.30;;;;;;2252180;61;20370;-59
2022/06/29 05:03:14;0.00;0.00;0.62;0.00;0.00;0.62;3.67;2.17;;;28.10;26.30;;;;;;2251776;61;20359;-56
2022/06/29 05:05:59;0.00;0.00;0.62;0.00;0.00;0.62;4.20;2.63;;;28.10;26.40;;;;;;2251976;61;20374;-58
2022/06/29 05:08:43;0.00;0.00;0.62;0.00;0.00;0.62;2.53;2.23;;;28.00;26.40;;;;;;2252354;61;20394;-58
2022/06/29 05:11:29;0.00;0.00;0.62;0.00;0.00;0.62;2.50;2.27;;;28.10;26.40;;;;;;2251852;61;20883;-59
2022/06/29 05:14:16;0.00;0.00;0.62;0.00;0.00;0.62;3.00;2.70;;;28.10;26.40;;;;;;2251792;61;20406;-59
2022/06/29 05:17:00;0.00;0.00;0.62;0.00;0.00;0.62;2.77;2.50;;;28.10;26.40;;;;;;2251980;61;20362;-59
2022/06/29 05:19:45;0.00;0.00;0.62;0.00;0.00;0.62;3.97;3.10;;;28.10;26.40;;;;;;2251991;61;20422;-58
2022/06/29 05:22:30;0.00;0.00;0.62;0.00;0.00;0.62;2.33;2.13;;;28.00;26.40;;;;;;2251976;61;20362;-60
2022/06/29 05:25:15;0.00;0.00;0.62;0.00;0.00;0.62;3.27;2.97;;;28.00;26.30;;;;;;2248457;61;20362;-59
2022/06/29 05:28:00;0.00;0.00;0.62;0.00;0.00;0.62;3.10;2.80;;;28.00;26.40;;;;;;2252071;61;21092;-60
2022/06/29 05:30:47;0.00;0.00;0.62;0.00;0.00;0.62;2.83;2.53;;;28.00;26.30;;;;;;2252300;61;20947;-61
2022/06/29 05:33:41;0.00;0.00;0.62;0.00;0.00;0.62;4.83;3.00;;;28.00;26.40;;;;;;2251935;61;20455;-61
2022/06/29 05:36:26;0.00;0.00;0.62;0.00;0.00;0.62;4.20;2.67;;;28.00;26.40;;;;;;2252156;61;20382;-63
2022/06/29 05:39:11;0.00;0.00;0.62;0.00;0.00;0.62;3.80;2.53;;;27.90;26.40;;;;;;2252071;61;20378;-63
2022/06/29 05:41:56;0.00;0.00;0.62;0.00;0.00;0.62;3.53;2.50;;;28.00;26.50;;;;;;2252458;61;20447;-61
2022/06/29 05:44:41;0.00;0.00;0.62;0.00;0.00;0.62;4.40;3.00;;;28.00;26.50;;;;;;2251927;61;20394;-63
2022/06/29 05:47:27;0.00;0.00;0.62;0.00;0.00;0.62;2.50;2.30;;;27.90;26.40;;;;;;2252026;61;20414;-58
2022/06/29 05:50:13;0.00;0.00;0.62;0.00;0.00;0.62;2.33;2.13;;;28.00;26.50;;;;;;2252427;61;20487;-66
2022/06/29 05:52:58;0.00;0.00;0.62;0.00;0.00;0.62;4.27;2.77;;;27.90;26.50;;;;;;2252265;61;20466;-63
2022/06/29 05:55:44;0.00;0.00;0.62;0.00;0.00;0.62;2.60;2.40;;;27.90;26.50;;;;;;2252064;61;20413;-64
2022/06/29 05:58:29;0.00;0.00;0.62;0.00;0.00;0.62;2.30;2.10;;;27.90;26.50;;;;;;2251916;61;20422;-63
2022/06/29 06:01:14;0.00;0.00;0.62;0.00;0.00;0.62;2.30;2.10;;;27.90;26.50;;;;;;2251974;61;20919;-63
2022/06/29 06:04:00;0.00;0.00;0.62;0.00;0.00;0.62;2.77;2.23;;;27.90;26.50;;;;;;2251734;61;20363;-62
2022/06/29 06:06:45;0.00;0.00;0.62;0.00;0.00;0.62;2.67;2.20;;;27.90;26.50;;;;;;2251932;61;20994;-63
2022/06/29 06:09:32;0.00;0.00;0.62;0.00;0.00;0.62;2.97;2.70;;;27.90;26.50;;;;;;2252318;61;20385;-67
2022/06/29 06:12:17;0.00;0.00;0.62;0.00;0.00;0.62;5.93;2.50;;;27.90;26.40;;;;;;2252168;61;21041;-63
2022/06/29 06:15:01;0.00;0.00;0.62;0.00;0.00;0.62;3.80;2.33;;;27.90;26.50;;;;;;2251957;61;20895;-64
2022/06/29 06:17:46;0.00;0.00;0.62;0.00;0.00;0.62;4.50;3.20;;;27.90;26.40;;;;;;2248395;61;20439;-65
2022/06/29 06:20:32;0.00;0.00;0.62;0.00;0.00;0.62;4.47;3.00;;;27.90;26.30;;;;;;2251759;61;20359;-64
2022/06/29 06:23:17;0.00;0.00;0.62;0.00;0.00;0.62;5.13;2.83;;;27.90;26.30;;;;;;2251752;61;20769;-63
2022/06/29 06:26:02;0.00;0.00;0.62;0.00;0.00;0.62;3.40;2.93;;;27.90;26.30;;;;;;2251733;61;20899;-66
2022/06/29 06:28:47;0.00;0.00;0.62;0.00;0.00;0.62;4.83;3.10;;;27.90;26.30;;;;;;2251606;61;20450;-65
2022/06/29 06:31:34;0.00;0.00;0.62;0.00;0.00;0.62;3.50;3.00;;;27.90;26.30;;;;;;2247415;61;21115;-64
2022/06/29 06:34:19;0.00;0.00;0.62;0.00;0.00;0.62;4.20;2.40;;;27.90;26.30;;;;;;2252352;61;20363;-64
2022/06/29 06:37:06;0.00;0.00;0.62;0.00;0.00;0.62;4.93;2.90;;;27.90;26.30;;;;;;2252238;61;20398;-64
2022/06/29 06:42:55;0.00;0.00;0.62;0.00;0.00;0.62;2.60;2.40;;;27.90;26.40;;;;;;2252768;61;20466;-65
2022/06/29 06:45:40;0.00;0.00;0.62;0.00;0.00;0.62;3.67;3.30;;;27.90;26.50;;;;;;2252647;61;20501;-65
2022/06/29 06:48:25;0.00;0.00;0.62;0.00;0.00;0.62;3.47;3.10;;;27.90;26.50;;;;;;2252244;61;20386;-64
2022/06/29 06:51:10;0.00;0.00;0.62;0.00;0.00;0.62;3.47;2.80;;;27.90;26.50;;;;;;2253779;61;20375;-63
2022/06/29 06:53:57;0.00;0.00;0.62;0.00;0.00;0.62;4.50;3.47;;;27.90;26.50;;;;;;2254818;61;20431;-65
2022/06/29 06:56:41;0.00;0.00;0.62;0.00;0.00;0.62;3.87;2.97;;;28.00;26.60;;;;;;2251516;61;20370;-64
2022/06/29 06:59:26;0.00;0.00;0.62;0.00;0.00;0.62;3.33;2.70;;;28.00;26.60;;;;;;2255574;61;20375;-65
2022/06/29 07:02:11;0.00;0.00;0.62;0.00;0.00;0.62;7.63;3.20;;;28.00;26.60;;;;;;2254101;61;20375;-62
2022/06/29 07:04:56;0.00;0.00;0.62;0.00;0.00;0.62;3.80;2.90;;;28.00;26.70;;;;;;2253563;61;20370;-66
2022/06/29 07:07:41;0.00;0.00;0.62;0.00;0.00;0.62;4.03;3.23;;;28.00;26.70;;;;;;2252318;61;20434;-63
2022/06/29 07:10:28;0.00;0.00;0.62;0.00;0.00;0.62;3.40;3.10;;;28.00;26.70;;;;;;2251845;61;20447;-63
2022/06/29 07:13:12;0.00;0.00;0.62;0.00;0.00;0.62;3.67;3.37;;;28.10;26.90;;;;;;2251452;61;20907;-66
2022/06/29 07:15:58;0.00;0.00;0.62;0.00;0.00;0.62;3.90;3.23;;;28.00;26.90;;;;;;2251295;61;20775;-64
2022/06/29 07:18:43;0.00;0.00;0.62;0.00;0.00;0.62;4.20;3.07;;;28.00;26.90;;;;;;2247949;61;20457;-63
2022/06/29 07:21:28;0.00;0.00;0.62;0.00;0.00;0.62;3.53;2.80;;;28.10;27.00;;;;;;2251566;61;20394;-58
2022/06/29 07:24:13;0.00;0.00;0.62;0.00;0.00;0.62;3.63;3.20;;;28.10;27.10;;;;;;2250725;61;20361;-63
2022/06/29 07:26:59;0.00;0.00;0.62;0.00;0.00;0.62;4.30;3.03;;;28.10;27.10;;;;;;2251548;61;20383;-63
2022/06/29 07:29:44;0.00;0.00;0.62;0.00;0.00;0.62;3.47;3.00;;;28.10;27.20;;;;;;2251493;61;20386;-64
2022/06/29 07:32:30;0.00;0.00;0.62;0.00;0.00;0.62;3.27;2.97;;;28.10;27.20;;;;;;2248061;61;20772;-63
2022/06/29 07:35:15;0.00;0.00;0.62;0.00;0.00;0.62;3.50;3.13;;;28.20;27.30;;;;;;2251598;61;20371;-63
2022/06/29 07:37:59;0.00;0.00;0.62;0.00;0.00;0.62;3.90;3.10;;;28.20;27.40;;;;;;2251216;61;20583;-62
2022/06/29 07:40:44;0.00;0.00;0.62;0.00;0.00;0.62;4.13;3.00;;;28.20;27.40;;;;;;2251453;61;20406;-61
2022/06/29 07:43:30;0.00;0.00;0.62;0.00;0.00;0.62;4.73;3.10;;;28.20;27.50;;;;;;2265386;61;20410;-63
2022/06/29 07:46:15;0.00;0.00;0.62;0.00;0.00;0.62;3.57;3.27;;;28.20;27.60;;;;;;2250582;61;20375;-65
2022/06/29 07:48:59;0.00;0.00;0.62;0.00;0.00;0.62;4.60;3.33;;;28.30;27.70;;;;;;2251674;61;20461;-64
2022/06/29 07:51:44;0.00;0.00;0.62;0.00;0.00;0.62;4.23;3.80;;;28.30;27.90;;;;;;2251248;61;20367;-64
2022/06/29 07:54:29;0.00;0.00;0.62;0.00;0.00;0.62;4.00;2.70;;;28.30;28.00;;;;;;2250935;61;20417;-64
2022/06/29 07:57:14;0.00;0.00;0.62;0.00;0.00;0.62;4.20;3.50;;;28.30;28.00;;;;;;2248515;61;20807;-63
2022/06/29 08:00:00;0.00;0.00;0.62;0.00;0.00;0.62;3.67;3.37;;;28.30;28.10;;;;;;2251178;61;20437;-61
2022/06/29 08:02:45;0.00;0.00;0.62;0.00;0.00;0.62;3.70;3.40;;;28.30;28.20;;;;;;2250914;61;20437;-65
2022/06/29 08:05:30;0.00;0.00;0.62;0.00;0.00;0.62;3.97;3.50;;;28.40;28.20;;;;;;2251552;61;20430;-63
2022/06/29 08:08:16;0.00;0.00;0.62;0.00;0.00;0.62;4.17;3.40;;;28.40;28.30;;;;;;2251280;61;20449;-63
2022/06/29 08:11:02;0.00;0.00;0.62;0.00;0.00;0.62;4.20;3.80;;;28.40;28.30;;;;;;2251348;61;20369;-62
2022/06/29 08:13:47;0.00;0.00;0.62;0.00;0.00;0.62;3.90;3.60;;;28.40;28.30;;;;;;2256182;61;20449;-61
2022/06/29 08:16:33;0.00;0.00;0.62;0.00;0.00;0.62;5.27;4.30;;;28.50;28.40;;;;;;2251324;61;20455;-61
2022/06/29 08:19:18;0.00;0.00;0.62;0.00;0.00;0.62;3.60;3.30;;;28.50;28.50;;;;;;2251531;61;20426;-63
2022/06/29 08:22:03;0.00;0.00;0.62;0.00;0.00;0.62;3.93;3.60;;;28.50;28.50;;;;;;2251237;61;20366;-63
2022/06/29 08:24:48;0.00;0.00;0.62;0.00;0.00;0.62;4.60;4.20;;;28.50;28.60;;;;;;2251001;61;20366;-61
2022/06/29 08:27:33;0.00;0.00;0.62;0.00;0.00;0.62;3.80;3.50;;;28.50;28.60;;;;;;2251675;61;20382;-63
2022/06/29 08:30:18;0.00;0.00;0.62;0.00;0.00;0.62;3.80;3.50;;;28.50;28.60;;;;;;2251361;61;20366;-63
2022/06/29 08:33:05;0.00;0.00;0.62;0.00;0.00;0.62;3.57;2.93;;;28.50;28.60;;;;;;2251576;61;20387;-63
2022/06/29 08:35:51;0.00;0.00;0.62;0.00;0.00;0.62;2.87;2.67;;;28.60;28.70;;;;;;2251805;61;20414;-64
2022/06/29 08:38:36;0.00;0.00;0.62;0.00;0.00;0.62;3.60;3.27;;;28.60;28.80;;;;;;2251074;61;20386;-65
2022/06/29 08:41:21;0.00;0.00;0.62;0.00;0.00;0.62;3.87;3.47;;;28.60;28.80;;;;;;2251699;61;20370;-64
2022/06/29 08:44:06;0.00;0.00;0.62;0.00;0.00;0.62;3.73;3.43;;;28.60;28.80;;;;;;2251063;61;20390;-65
2022/06/29 08:46:51;0.00;0.00;0.62;0.00;0.00;0.62;4.50;3.60;;;28.60;28.80;;;;;;2251314;61;20359;-65
2022/06/29 08:49:37;0.00;0.00;0.62;0.00;0.00;0.62;3.60;3.30;;;28.60;28.90;;;;;;2251662;61;20475;-63
2022/06/29 08:52:25;0.00;0.00;0.62;0.00;0.00;0.62;3.73;3.43;;;28.60;29.00;;;;;;2251308;61;20370;-64
2022/06/29 08:55:11;0.00;0.00;0.62;0.00;0.00;0.62;3.90;3.10;;;28.70;29.00;;;;;;2251111;61;20879;-65
2022/06/29 08:57:56;0.00;0.00;0.62;0.00;0.00;0.62;3.83;3.53;;;28.70;29.00;;;;;;2248409;61;20355;-64
2022/06/29 09:00:41;0.00;0.00;0.62;0.00;0.00;0.62;3.30;3.00;;;28.70;29.00;;;;;;2250964;61;20402;-63
2022/06/29 09:03:26;0.00;0.00;0.62;0.00;0.00;0.62;3.63;3.03;;;28.80;29.10;;;;;;2251335;61;20362;-64
2022/06/29 09:06:12;0.00;0.00;0.62;0.00;0.00;0.62;3.80;3.30;;;28.70;29.00;;;;;;2251205;61;20463;-64
2022/06/29 09:08:57;0.00;0.00;0.62;0.00;0.00;0.62;3.30;3.00;;;28.80;29.00;;;;;;2247584;61;20498;-63
2022/06/29 09:11:43;0.00;0.00;0.62;0.00;0.00;0.62;5.77;3.07;;;28.80;29.00;;;;;;2251613;61;20947;-63
2022/06/29 09:14:28;0.00;0.00;0.62;0.00;0.00;0.62;4.10;3.63;;;28.80;29.00;;;;;;2251116;61;20409;-63
2022/06/29 09:17:17;0.00;0.00;0.62;0.00;0.00;0.62;6.03;3.40;;;28.80;28.90;;;;;;2251263;61;20373;-64
2022/06/29 09:20:05;0.00;0.00;0.62;0.00;0.00;0.62;3.80;3.50;;;28.90;28.90;;;;;;2481945;53;20387;-66
2022/06/29 09:22:56;0.00;0.00;0.62;0.00;0.00;0.62;4.70;4.30;;;28.80;28.90;;;;;;2244019;61;20781;-65
2022/06/29 09:25:42;0.00;0.00;0.62;0.00;0.00;0.62;4.87;3.77;;;28.90;28.90;;;;;;2244683;61;20360;-65
2022/06/29 09:28:29;0.00;0.00;0.62;0.00;0.00;0.62;3.60;3.30;;;28.90;28.70;;;;;;2246883;61;20391;-64
2022/06/29 09:31:15;0.00;0.00;0.62;0.00;0.00;0.62;3.20;2.90;;;28.90;28.50;;;;;;2247202;61;20368;-66
2022/06/29 09:34:19;0.00;0.00;0.62;0.00;0.00;0.62;4.53;3.60;;;28.90;28.50;;;;;;2247253;61;20367;-65
2022/06/29 09:37:06;0.00;0.00;0.62;0.00;0.00;0.62;3.57;3.27;;;28.90;28.50;;;;;;2248311;61;20367;-62
2022/06/29 09:39:55;0.00;0.00;0.62;0.00;0.00;0.62;3.83;3.43;;;28.90;28.50;;;;;;2248294;61;20435;-63
2022/06/29 09:42:40;0.00;0.00;0.62;0.00;0.00;0.62;3.80;3.50;;;29.00;28.50;;;;;;2248147;61;20452;-67
2022/06/29 09:45:26;0.00;0.00;0.62;0.00;0.00;0.62;4.43;4.03;;;29.00;28.60;;;;;;2247648;61;20370;-65
2022/06/29 09:48:11;0.00;0.00;0.62;0.00;0.00;0.62;5.10;4.30;;;29.00;28.60;;;;;;2248158;61;21134;-66
2022/06/29 09:50:56;0.00;0.00;0.62;0.00;0.00;0.62;5.00;4.50;;;29.00;28.70;;;;;;2248695;61;20415;-63
2022/06/29 09:53:42;0.00;0.00;0.62;0.00;0.00;0.62;5.63;4.17;;;29.00;28.60;;;;;;2247773;61;20364;-64
2022/06/29 09:56:30;0.00;0.00;0.62;0.00;0.00;0.62;4.00;3.70;;;29.00;28.60;;;;;;2248360;61;20751;-63
2022/06/29 10:02:34;0.00;0.00;0.62;0.00;0.00;0.62;4.03;3.63;;;29.00;28.60;;;;;;2247578;61;20403;-65
2022/06/29 10:02:37;0.00;0.00;0.62;0.00;0.00;0.62;7.20;4.23;;;29.10;28.60;;;;;;2248192;61;20403;-64
2022/06/29 10:05:54;0.00;0.00;0.62;0.00;0.00;0.62;4.80;4.40;;;29.10;28.60;;;;;;2244508;61;20881;-63
2022/06/29 10:08:33;0.00;0.00;0.62;0.00;0.00;0.62;4.17;3.83;;;29.10;28.70;;;;;;2247438;61;20451;-65
2022/06/29 10:14:49;0.00;0.00;0.62;0.00;0.00;0.62;5.40;4.43;;;29.20;28.80;;;;;;2247656;61;20367;-64
2022/06/29 10:17:49;0.00;0.00;0.62;0.00;0.00;0.62;5.07;4.20;;;29.20;28.80;;;;;;2248313;61;20359;-64
2022/06/29 10:20:41;0.00;0.00;0.62;0.00;0.00;0.62;4.40;4.00;;;29.20;28.80;;;;;;2248201;61;20364;-59
2022/06/29 10:23:47;0.00;0.00;0.62;0.00;0.00;0.62;4.43;4.03;;;29.30;28.90;;;;;;2248472;61;20360;-62
2022/06/29 10:26:46;0.00;0.00;0.62;0.00;0.00;0.62;5.10;4.60;;;29.20;28.80;;;;;;2248291;61;20416;-63
2022/06/29 10:29:35;0.00;0.00;0.62;0.00;0.00;0.62;4.70;4.17;;;29.30;28.80;;;;;;2245331;61;20391;-62
2022/06/29 10:32:20;0.00;0.00;0.62;0.00;0.00;0.62;4.30;3.90;;;29.30;28.80;;;;;;2249306;61;20383;-61
2022/06/29 10:35:06;0.00;0.00;0.62;0.00;0.00;0.62;3.87;3.57;;;29.30;28.90;;;;;;2248632;61;20495;-65
2022/06/29 10:37:53;0.00;0.00;0.62;0.00;0.00;0.62;5.03;3.87;;;29.30;28.80;;;;;;2248662;61;20359;-62
2022/06/29 10:40:38;0.00;0.00;0.62;0.00;0.00;0.62;4.83;4.43;;;29.40;28.90;;;;;;2248916;61;20434;-63
2022/06/29 10:43:25;0.00;0.00;0.62;0.00;0.00;0.62;3.83;3.53;;;29.30;28.80;;;;;;2248408;61;20371;-64
2022/06/29 10:46:10;0.00;0.00;0.62;0.00;0.00;0.62;6.70;4.20;;;29.40;28.80;;;;;;2247912;61;20367;-63
2022/06/29 10:49:20;0.00;0.00;0.62;0.00;0.00;0.62;3.97;3.67;;;29.40;28.70;;;;;;2248280;61;20392;-63
2022/06/29 10:52:05;0.00;0.00;0.62;0.00;0.00;0.62;5.83;4.83;;;29.40;28.60;;;;;;2248379;61;20403;-63
2022/06/29 10:54:50;0.00;0.00;0.62;0.00;0.00;0.62;4.50;4.10;;;29.40;28.60;;;;;;2246824;61;20355;-63
2022/06/29 10:57:37;0.00;0.00;0.62;0.00;0.00;0.62;4.60;4.03;;;29.40;28.60;;;;;;2250224;61;20367;-63
2022/06/29 11:00:25;0.00;0.00;0.62;0.00;0.00;0.62;5.00;3.97;;;29.40;28.60;;;;;;2249693;61;20367;-63
2022/06/29 11:03:16;0.00;0.00;0.62;0.00;0.00;0.62;4.57;4.10;;;29.50;28.60;;;;;;2250506;61;20363;-63
2022/06/29 11:12:11;0.00;0.00;0.62;0.00;0.00;0.62;4.67;4.27;;;29.50;28.70;;;;;;2250500;61;20912;-64
2022/06/29 11:18:02;0.00;0.00;0.62;0.00;0.00;0.62;4.90;4.50;;;29.50;28.70;;;;;;2249812;61;20344;-64